Chesterfield, Massachusetts
Current Conditions -  °F | °C
As of 6:53 PM on Saturday 25 Oct 2014 (Local Time) from KBAF Reporting Station
Broken Clouds Broken Clouds  
Wind Chill: 54°   Ceiling: 10000
Heat Index: 54°   Visibility: 10mi
Dew Point: 43°   Wind: 5mph
Humidity: 66%   Direction: 150°SSE
Pressure: 29.59"   Gusts: NA
Location:  42.39°N, 72.84°W
Report Text: KBAF 252253Z 15004KT 10SM SCT080 BKN100 12/06 A2959 RMK AO2 SLP023 T01220061
Loading
Personal Weather Stations






























Interactive Weather Map
Tropical Storm Tracking
New forecast layout! Learn more

10-Day Weather Forecast

Advertisements
Track Severe Weather on mobile